Hovedside
METAR-TAF:

METAR-TAF

Lufthavner :

Oljeplattform

Sleipner, Norge

breddegrad: 58-22-00N, lengdegrad: 001-54-25E, høyde over havet: 50 m

Gjeldene værobservasjon

Denne rapporten ble laget for 20 minutter siden, klokken 19:50 UTC
Vind 25 kt fra Sør-sørøst
Temperatur 6°C
Luftfuktighet 75%
Trykk 979 hPa
Sikt 10 km eller mer

METAR: ENSL 121950Z AUTO 16025KT 9999NDV FEW022/// SCT042/// 06/02 Q0979 W05/S4

Tid: 21:10 (20:10 UTC)


TAF: fraværende

Værobservasjoner og værvarsel for over 4000 flyplasser (METAR- og TAF-rapporter).

Tilgjengelige stasjoner er representert av de røde og gule prikkene på kartet.

Hold musepekeren over prikken for å se navnet på stasjonen.

Klikk så for å se værobservasjoner og -varsler.

For å forandre kartet kan du klikke på den grønne knappen med svart kryss for å zoome inn, på den grønne knappen med strek for å zoome ut, eller på de grønne pilene for å se tilstøtende kart.


METAR-TAF: